sensor_id;sensor_type;location;lat;lon;timestamp;P1;durP1;ratioP1;P2;durP2;ratioP2
54699;SDS011;40599;53.132;6.090;2022-09-27T00:00:32;5.80;;;2.78;;
54699;SDS011;40599;53.132;6.090;2022-09-27T00:02:58;6.97;;;3.57;;
54699;SDS011;40599;53.132;6.090;2022-09-27T00:05:24;6.63;;;2.57;;
54699;SDS011;40599;53.132;6.090;2022-09-27T00:07:50;9.52;;;3.00;;
54699;SDS011;40599;53.132;6.090;2022-09-27T00:10:15;6.70;;;2.40;;
54699;SDS011;40599;53.132;6.090;2022-09-27T00:12:41;6.03;;;2.97;;
54699;SDS011;40599;53.132;6.090;2022-09-27T00:15:07;9.60;;;2.97;;
54699;SDS011;40599;53.132;6.090;2022-09-27T00:17:34;5.28;;;2.47;;
54699;SDS011;40599;53.132;6.090;2022-09-27T00:20:01;6.20;;;2.45;;
54699;SDS011;40599;53.132;6.090;2022-09-27T00:22:28;4.97;;;2.60;;
54699;SDS011;40599;53.132;6.090;2022-09-27T00:24:55;9.23;;;2.63;;
54699;SDS011;40599;53.132;6.090;2022-09-27T00:27:21;7.20;;;2.63;;
54699;SDS011;40599;53.132;6.090;2022-09-27T00:29:46;9.33;;;3.00;;
54699;SDS011;40599;53.132;6.090;2022-09-27T00:32:12;6.67;;;2.97;;
54699;SDS011;40599;53.132;6.090;2022-09-27T00:34:39;8.32;;;3.10;;
54699;SDS011;40599;53.132;6.090;2022-09-27T00:37:05;9.57;;;2.90;;
54699;SDS011;40599;53.132;6.090;2022-09-27T00:39:31;8.93;;;3.00;;
54699;SDS011;40599;53.132;6.090;2022-09-27T00:41:57;11.53;;;2.83;;
54699;SDS011;40599;53.132;6.090;2022-09-27T00:52:10;9.43;;;2.72;;
54699;SDS011;40599;53.132;6.090;2022-09-27T00:54:45;5.93;;;2.80;;
54699;SDS011;40599;53.132;6.090;2022-09-27T00:57:14;8.73;;;2.88;;
54699;SDS011;40599;53.132;6.090;2022-09-27T00:59:42;7.10;;;3.08;;
54699;SDS011;40599;53.132;6.090;2022-09-27T01:02:14;7.70;;;2.78;;
54699;SDS011;40599;53.132;6.090;2022-09-27T01:04:40;7.63;;;2.90;;
54699;SDS011;40599;53.132;6.090;2022-09-27T01:07:07;5.07;;;2.67;;
54699;SDS011;40599;53.132;6.090;2022-09-27T01:09:33;10.50;;;3.53;;
54699;SDS011;40599;53.132;6.090;2022-09-27T01:14:39;8.38;;;2.60;;
54699;SDS011;40599;53.132;6.090;2022-09-27T01:20:30;6.95;;;2.88;;
54699;SDS011;40599;53.132;6.090;2022-09-27T01:37:35;5.50;;;2.75;;
54699;SDS011;40599;53.132;6.090;2022-09-27T01:43:11;5.45;;;2.67;;
54699;SDS011;40599;53.132;6.090;2022-09-27T01:48:21;5.50;;;2.95;;
54699;SDS011;40599;53.132;6.090;2022-09-27T01:50:56;7.30;;;2.75;;
54699;SDS011;40599;53.132;6.090;2022-09-27T01:53:30;6.82;;;2.70;;
54699;SDS011;40599;53.132;6.090;2022-09-27T01:56:03;5.65;;;2.60;;
54699;SDS011;40599;53.132;6.090;2022-09-27T02:01:21;8.18;;;2.75;;
54699;SDS011;40599;53.132;6.090;2022-09-27T02:03:49;7.10;;;2.75;;
54699;SDS011;40599;53.132;6.090;2022-09-27T02:06:22;6.90;;;2.83;;
54699;SDS011;40599;53.132;6.090;2022-09-27T02:08:57;5.60;;;2.80;;
54699;SDS011;40599;53.132;6.090;2022-09-27T02:11:44;6.90;;;3.65;;
54699;SDS011;40599;53.132;6.090;2022-09-27T02:14:18;9.18;;;3.17;;
54699;SDS011;40599;53.132;6.090;2022-09-27T02:16:56;8.45;;;3.03;;
54699;SDS011;40599;53.132;6.090;2022-09-27T02:22:31;4.65;;;2.70;;
54699;SDS011;40599;53.132;6.090;2022-09-27T02:27:45;8.32;;;2.60;;
54699;SDS011;40599;53.132;6.090;2022-09-27T02:30:13;4.38;;;2.70;;
54699;SDS011;40599;53.132;6.090;2022-09-27T02:32:40;8.35;;;2.40;;
54699;SDS011;40599;53.132;6.090;2022-09-27T02:35:14;5.55;;;2.60;;
54699;SDS011;40599;53.132;6.090;2022-09-27T02:37:53;4.22;;;2.60;;
54699;SDS011;40599;53.132;6.090;2022-09-27T02:40:20;9.93;;;2.90;;
54699;SDS011;40599;53.132;6.090;2022-09-27T02:42:47;5.57;;;2.58;;
54699;SDS011;40599;53.132;6.090;2022-09-27T02:45:13;6.95;;;2.65;;
54699;SDS011;40599;53.132;6.090;2022-09-27T02:50:43;7.00;;;2.47;;
54699;SDS011;40599;53.132;6.090;2022-09-27T02:53:31;7.43;;;2.60;;
54699;SDS011;40599;53.132;6.090;2022-09-27T03:04:05;4.25;;;2.67;;
54699;SDS011;40599;53.132;6.090;2022-09-27T03:06:40;6.43;;;2.75;;
54699;SDS011;40599;53.132;6.090;2022-09-27T03:09:12;6.68;;;3.22;;
54699;SDS011;40599;53.132;6.090;2022-09-27T03:11:45;6.75;;;2.88;;
54699;SDS011;40599;53.132;6.090;2022-09-27T03:14:11;7.17;;;3.13;;
54699;SDS011;40599;53.132;6.090;2022-09-27T03:16:37;8.97;;;3.03;;
54699;SDS011;40599;53.132;6.090;2022-09-27T03:19:03;3.57;;;3.07;;
54699;SDS011;40599;53.132;6.090;2022-09-27T03:21:28;7.43;;;3.40;;
54699;SDS011;40599;53.132;6.090;2022-09-27T03:23:55;5.13;;;3.00;;
54699;SDS011;40599;53.132;6.090;2022-09-27T03:26:21;8.90;;;3.30;;
54699;SDS011;40599;53.132;6.090;2022-09-27T03:28:46;4.03;;;2.87;;
54699;SDS011;40599;53.132;6.090;2022-09-27T03:31:12;6.27;;;2.83;;
54699;SDS011;40599;53.132;6.090;2022-09-27T03:33:38;5.03;;;3.33;;
54699;SDS011;40599;53.132;6.090;2022-09-27T03:36:05;5.55;;;2.75;;
54699;SDS011;40599;53.132;6.090;2022-09-27T03:38:31;4.32;;;3.20;;
54699;SDS011;40599;53.132;6.090;2022-09-27T03:40:57;5.30;;;3.00;;
54699;SDS011;40599;53.132;6.090;2022-09-27T03:43:23;4.70;;;3.10;;
54699;SDS011;40599;53.132;6.090;2022-09-27T03:45:49;3.53;;;2.60;;
54699;SDS011;40599;53.132;6.090;2022-09-27T03:48:15;6.60;;;3.03;;
54699;SDS011;40599;53.132;6.090;2022-09-27T03:50:41;5.47;;;3.08;;
54699;SDS011;40599;53.132;6.090;2022-09-27T03:53:07;6.30;;;3.40;;
54699;SDS011;40599;53.132;6.090;2022-09-27T03:55:32;6.13;;;3.20;;
54699;SDS011;40599;53.132;6.090;2022-09-27T03:57:59;5.55;;;3.15;;
54699;SDS011;40599;53.132;6.090;2022-09-27T04:00:25;8.30;;;3.20;;
54699;SDS011;40599;53.132;6.090;2022-09-27T04:02:51;6.73;;;3.00;;
54699;SDS011;40599;53.132;6.090;2022-09-27T04:05:17;5.03;;;2.80;;
54699;SDS011;40599;53.132;6.090;2022-09-27T04:07:46;8.70;;;3.13;;
54699;SDS011;40599;53.132;6.090;2022-09-27T04:10:13;9.40;;;3.00;;
54699;SDS011;40599;53.132;6.090;2022-09-27T04:12:39;7.97;;;3.20;;
54699;SDS011;40599;53.132;6.090;2022-09-27T04:15:05;7.13;;;3.33;;
54699;SDS011;40599;53.132;6.090;2022-09-27T04:19:58;9.77;;;3.70;;
54699;SDS011;40599;53.132;6.090;2022-09-27T04:22:24;5.03;;;2.97;;
54699;SDS011;40599;53.132;6.090;2022-09-27T04:24:49;6.77;;;3.13;;
54699;SDS011;40599;53.132;6.090;2022-09-27T04:27:15;6.23;;;3.13;;
54699;SDS011;40599;53.132;6.090;2022-09-27T04:29:41;5.63;;;2.97;;
54699;SDS011;40599;53.132;6.090;2022-09-27T04:32:09;5.07;;;3.15;;
54699;SDS011;40599;53.132;6.090;2022-09-27T04:34:38;6.03;;;3.40;;
54699;SDS011;40599;53.132;6.090;2022-09-27T04:37:23;9.13;;;3.95;;
54699;SDS011;40599;53.132;6.090;2022-09-27T04:39:49;7.50;;;2.88;;
54699;SDS011;40599;53.132;6.090;2022-09-27T04:42:15;6.83;;;3.23;;
54699;SDS011;40599;53.132;6.090;2022-09-27T04:44:41;8.52;;;3.15;;
54699;SDS011;40599;53.132;6.090;2022-09-27T04:47:08;4.78;;;3.20;;
54699;SDS011;40599;53.132;6.090;2022-09-27T04:49:33;8.07;;;3.40;;
54699;SDS011;40599;53.132;6.090;2022-09-27T04:51:59;5.53;;;2.93;;
54699;SDS011;40599;53.132;6.090;2022-09-27T04:54:25;6.78;;;2.97;;
54699;SDS011;40599;53.132;6.090;2022-09-27T04:56:51;6.03;;;3.30;;
54699;SDS011;40599;53.132;6.090;2022-09-27T04:59:16;7.53;;;3.40;;
54699;SDS011;40599;53.132;6.090;2022-09-27T05:01:42;9.03;;;3.40;;
54699;SDS011;40599;53.132;6.090;2022-09-27T05:04:09;6.32;;;3.10;;
54699;SDS011;40599;53.132;6.090;2022-09-27T05:06:35;4.53;;;2.90;;
54699;SDS011;40599;53.132;6.090;2022-09-27T05:09:00;10.97;;;3.37;;
54699;SDS011;40599;53.132;6.090;2022-09-27T05:11:27;6.72;;;2.92;;
54699;SDS011;40599;53.132;6.090;2022-09-27T05:13:52;10.10;;;3.80;;
54699;SDS011;40599;53.132;6.090;2022-09-27T05:16:18;8.10;;;3.17;;
54699;SDS011;40599;53.132;6.090;2022-09-27T05:18:44;8.57;;;3.00;;
54699;SDS011;40599;53.132;6.090;2022-09-27T05:21:10;7.93;;;3.10;;
54699;SDS011;40599;53.132;6.090;2022-09-27T05:23:36;8.98;;;3.08;;
54699;SDS011;40599;53.132;6.090;2022-09-27T05:26:03;6.17;;;3.00;;
54699;SDS011;40599;53.132;6.090;2022-09-27T05:28:30;9.77;;;3.08;;
54699;SDS011;40599;53.132;6.090;2022-09-27T05:30:56;8.43;;;2.80;;
54699;SDS011;40599;53.132;6.090;2022-09-27T05:33:22;6.13;;;2.88;;
54699;SDS011;40599;53.132;6.090;2022-09-27T05:35:54;5.77;;;3.60;;
54699;SDS011;40599;53.132;6.090;2022-09-27T05:38:21;6.68;;;3.08;;
54699;SDS011;40599;53.132;6.090;2022-09-27T05:40:47;4.82;;;2.72;;
54699;SDS011;40599;53.132;6.090;2022-09-27T05:43:15;4.82;;;2.75;;
54699;SDS011;40599;53.132;6.090;2022-09-27T05:45:41;8.07;;;2.90;;
54699;SDS011;40599;53.132;6.090;2022-09-27T05:48:08;6.38;;;2.60;;
54699;SDS011;40599;53.132;6.090;2022-09-27T05:50:34;7.40;;;2.90;;
54699;SDS011;40599;53.132;6.090;2022-09-27T05:53:00;6.93;;;2.97;;
54699;SDS011;40599;53.132;6.090;2022-09-27T05:55:26;10.33;;;3.40;;
54699;SDS011;40599;53.132;6.090;2022-09-27T05:57:57;6.78;;;2.90;;
54699;SDS011;40599;53.132;6.090;2022-09-27T06:00:24;5.63;;;2.95;;
54699;SDS011;40599;53.132;6.090;2022-09-27T06:02:54;5.60;;;3.00;;
54699;SDS011;40599;53.132;6.090;2022-09-27T06:05:25;6.80;;;3.10;;
54699;SDS011;40599;53.132;6.090;2022-09-27T06:07:56;6.22;;;3.15;;
54699;SDS011;40599;53.132;6.090;2022-09-27T06:10:26;7.75;;;3.40;;
54699;SDS011;40599;53.132;6.090;2022-09-27T06:13:00;6.32;;;2.67;;
54699;SDS011;40599;53.132;6.090;2022-09-27T06:15:29;5.07;;;3.00;;
54699;SDS011;40599;53.132;6.090;2022-09-27T06:17:56;4.18;;;2.90;;
54699;SDS011;40599;53.132;6.090;2022-09-27T06:20:26;5.18;;;3.03;;
54699;SDS011;40599;53.132;6.090;2022-09-27T06:22:51;6.57;;;3.00;;
54699;SDS011;40599;53.132;6.090;2022-09-27T06:25:18;5.60;;;2.63;;
54699;SDS011;40599;53.132;6.090;2022-09-27T06:27:44;16.38;;;4.28;;
54699;SDS011;40599;53.132;6.090;2022-09-27T06:30:10;21.07;;;4.00;;
54699;SDS011;40599;53.132;6.090;2022-09-27T06:32:36;10.50;;;3.35;;
54699;SDS011;40599;53.132;6.090;2022-09-27T06:35:03;12.63;;;3.30;;
54699;SDS011;40599;53.132;6.090;2022-09-27T06:37:30;8.07;;;2.70;;
54699;SDS011;40599;53.132;6.090;2022-09-27T06:39:55;7.60;;;2.70;;
54699;SDS011;40599;53.132;6.090;2022-09-27T06:42:21;6.83;;;2.80;;
54699;SDS011;40599;53.132;6.090;2022-09-27T06:44:47;9.43;;;3.00;;
54699;SDS011;40599;53.132;6.090;2022-09-27T06:47:15;5.13;;;2.97;;
54699;SDS011;40599;53.132;6.090;2022-09-27T06:49:41;6.38;;;2.75;;
54699;SDS011;40599;53.132;6.090;2022-09-27T06:52:07;2.70;;;2.47;;
54699;SDS011;40599;53.132;6.090;2022-09-27T06:54:33;4.00;;;2.28;;
54699;SDS011;40599;53.132;6.090;2022-09-27T06:56:58;4.50;;;2.83;;
54699;SDS011;40599;53.132;6.090;2022-09-27T06:59:24;3.60;;;2.87;;
54699;SDS011;40599;53.132;6.090;2022-09-27T07:02:08;3.15;;;2.70;;
54699;SDS011;40599;53.132;6.090;2022-09-27T07:04:34;3.50;;;2.53;;
54699;SDS011;40599;53.132;6.090;2022-09-27T07:07:00;6.80;;;2.73;;
54699;SDS011;40599;53.132;6.090;2022-09-27T07:09:26;4.97;;;3.30;;
54699;SDS011;40599;53.132;6.090;2022-09-27T07:11:51;2.87;;;2.67;;
54699;SDS011;40599;53.132;6.090;2022-09-27T07:14:19;3.15;;;2.85;;
54699;SDS011;40599;53.132;6.090;2022-09-27T07:16:45;4.63;;;2.90;;
54699;SDS011;40599;53.132;6.090;2022-09-27T07:19:11;3.33;;;2.50;;
54699;SDS011;40599;53.132;6.090;2022-09-27T07:21:38;2.75;;;2.42;;
54699;SDS011;40599;53.132;6.090;2022-09-27T07:24:04;3.25;;;2.95;;
54699;SDS011;40599;53.132;6.090;2022-09-27T07:26:30;7.63;;;2.83;;
54699;SDS011;40599;53.132;6.090;2022-09-27T07:28:56;5.23;;;2.63;;
54699;SDS011;40599;53.132;6.090;2022-09-27T07:31:22;3.63;;;2.73;;
54699;SDS011;40599;53.132;6.090;2022-09-27T07:33:48;3.10;;;2.50;;
54699;SDS011;40599;53.132;6.090;2022-09-27T07:36:14;5.03;;;3.00;;
54699;SDS011;40599;53.132;6.090;2022-09-27T07:38:40;4.70;;;3.10;;
54699;SDS011;40599;53.132;6.090;2022-09-27T07:41:12;3.23;;;2.80;;
54699;SDS011;40599;53.132;6.090;2022-09-27T07:43:39;5.20;;;2.90;;
54699;SDS011;40599;53.132;6.090;2022-09-27T07:46:06;3.65;;;2.88;;
54699;SDS011;40599;53.132;6.090;2022-09-27T07:48:32;3.17;;;2.87;;
54699;SDS011;40599;53.132;6.090;2022-09-27T07:50:58;3.95;;;3.00;;
54699;SDS011;40599;53.132;6.090;2022-09-27T07:53:24;3.73;;;3.00;;
54699;SDS011;40599;53.132;6.090;2022-09-27T07:55:50;4.17;;;3.17;;
54699;SDS011;40599;53.132;6.090;2022-09-27T08:00:43;3.47;;;3.17;;
54699;SDS011;40599;53.132;6.090;2022-09-27T08:03:09;5.30;;;3.10;;
54699;SDS011;40599;53.132;6.090;2022-09-27T08:05:40;5.03;;;2.83;;
54699;SDS011;40599;53.132;6.090;2022-09-27T08:08:06;5.53;;;3.20;;
54699;SDS011;40599;53.132;6.090;2022-09-27T08:10:33;3.03;;;2.72;;
54699;SDS011;40599;53.132;6.090;2022-09-27T08:12:59;4.40;;;2.92;;
54699;SDS011;40599;53.132;6.090;2022-09-27T08:15:27;4.35;;;3.20;;
54699;SDS011;40599;53.132;6.090;2022-09-27T08:17:55;5.82;;;3.05;;
54699;SDS011;40599;53.132;6.090;2022-09-27T08:20:21;5.03;;;3.37;;
54699;SDS011;40599;53.132;6.090;2022-09-27T08:22:47;5.00;;;3.10;;
54699;SDS011;40599;53.132;6.090;2022-09-27T08:25:13;7.07;;;3.10;;
54699;SDS011;40599;53.132;6.090;2022-09-27T08:27:39;4.93;;;3.10;;
54699;SDS011;40599;53.132;6.090;2022-09-27T08:30:05;4.07;;;3.05;;
54699;SDS011;40599;53.132;6.090;2022-09-27T08:32:31;5.72;;;2.60;;
54699;SDS011;40599;53.132;6.090;2022-09-27T08:34:58;9.68;;;2.92;;
54699;SDS011;40599;53.132;6.090;2022-09-27T08:37:24;7.90;;;3.30;;
54699;SDS011;40599;53.132;6.090;2022-09-27T08:39:50;9.43;;;3.08;;
54699;SDS011;40599;53.132;6.090;2022-09-27T08:45:09;5.13;;;2.85;;
54699;SDS011;40599;53.132;6.090;2022-09-27T08:47:47;4.68;;;2.80;;
54699;SDS011;40599;53.132;6.090;2022-09-27T08:50:34;4.50;;;2.50;;
54699;SDS011;40599;53.132;6.090;2022-09-27T08:55:40;5.28;;;2.58;;
54699;SDS011;40599;53.132;6.090;2022-09-27T08:58:13;4.47;;;2.80;;
54699;SDS011;40599;53.132;6.090;2022-09-27T09:01:03;4.28;;;3.05;;
54699;SDS011;40599;53.132;6.090;2022-09-27T09:03:32;9.55;;;3.03;;
54699;SDS011;40599;53.132;6.090;2022-09-27T09:20:28;6.72;;;3.00;;
54699;SDS011;40599;53.132;6.090;2022-09-27T09:29:37;7.63;;;3.00;;
54699;SDS011;40599;53.132;6.090;2022-09-27T09:31:39;4.22;;;2.97;;
54699;SDS011;40599;53.132;6.090;2022-09-27T09:34:37;5.22;;;3.10;;
54699;SDS011;40599;53.132;6.090;2022-09-27T09:37:19;5.65;;;3.20;;
54699;SDS011;40599;53.132;6.090;2022-09-27T09:39:52;4.80;;;3.72;;
54699;SDS011;40599;53.132;6.090;2022-09-27T09:42:30;9.95;;;3.42;;
54699;SDS011;40599;53.132;6.090;2022-09-27T09:45:19;6.40;;;3.10;;
54699;SDS011;40599;53.132;6.090;2022-09-27T09:47:58;8.20;;;4.20;;
54699;SDS011;40599;53.132;6.090;2022-09-27T09:50:48;7.93;;;2.80;;
54699;SDS011;40599;53.132;6.090;2022-09-27T09:53:28;9.98;;;3.17;;
54699;SDS011;40599;53.132;6.090;2022-09-27T09:56:09;17.73;;;4.97;;
54699;SDS011;40599;53.132;6.090;2022-09-27T09:58:45;8.95;;;3.85;;
54699;SDS011;40599;53.132;6.090;2022-09-27T10:01:42;3.97;;;2.80;;
54699;SDS011;40599;53.132;6.090;2022-09-27T10:04:19;6.40;;;3.50;;
54699;SDS011;40599;53.132;6.090;2022-09-27T10:06:47;4.67;;;2.40;;
54699;SDS011;40599;53.132;6.090;2022-09-27T10:09:14;6.35;;;2.20;;
54699;SDS011;40599;53.132;6.090;2022-09-27T10:11:43;5.28;;;2.30;;
54699;SDS011;40599;53.132;6.090;2022-09-27T10:14:10;5.05;;;2.33;;
54699;SDS011;40599;53.132;6.090;2022-09-27T10:16:42;4.85;;;2.00;;
54699;SDS011;40599;53.132;6.090;2022-09-27T10:19:19;7.15;;;2.30;;
54699;SDS011;40599;53.132;6.090;2022-09-27T10:21:51;9.27;;;2.17;;
54699;SDS011;40599;53.132;6.090;2022-09-27T10:26:44;5.47;;;2.40;;
54699;SDS011;40599;53.132;6.090;2022-09-27T10:31:56;6.07;;;2.97;;
54699;SDS011;40599;53.132;6.090;2022-09-27T10:34:30;8.68;;;3.50;;
54699;SDS011;40599;53.132;6.090;2022-09-27T10:39:37;4.53;;;2.30;;
54699;SDS011;40599;53.132;6.090;2022-09-27T10:47:46;6.50;;;2.20;;
54699;SDS011;40599;53.132;6.090;2022-09-27T10:50:19;3.13;;;1.83;;
54699;SDS011;40599;53.132;6.090;2022-09-27T10:52:59;4.43;;;2.30;;
54699;SDS011;40599;53.132;6.090;2022-09-27T10:55:31;4.32;;;2.40;;
54699;SDS011;40599;53.132;6.090;2022-09-27T10:57:59;3.55;;;2.10;;
54699;SDS011;40599;53.132;6.090;2022-09-27T11:02:58;3.75;;;2.30;;
54699;SDS011;40599;53.132;6.090;2022-09-27T11:05:34;4.07;;;2.30;;
54699;SDS011;40599;53.132;6.090;2022-09-27T11:08:18;6.23;;;2.50;;
54699;SDS011;40599;53.132;6.090;2022-09-27T11:13:39;3.37;;;2.27;;
54699;SDS011;40599;53.132;6.090;2022-09-27T11:16:12;3.45;;;1.95;;
54699;SDS011;40599;53.132;6.090;2022-09-27T11:40:29;6.57;;;2.00;;
54699;SDS011;40599;53.132;6.090;2022-09-27T11:45:59;3.33;;;1.90;;
54699;SDS011;40599;53.132;6.090;2022-09-27T11:54:15;3.67;;;2.07;;
54699;SDS011;40599;53.132;6.090;2022-09-27T11:57:05;4.00;;;1.87;;
54699;SDS011;40599;53.132;6.090;2022-09-27T12:11:13;8.87;;;2.07;;
54699;SDS011;40599;53.132;6.090;2022-09-27T12:16:14;7.47;;;2.00;;
54699;SDS011;40599;53.132;6.090;2022-09-27T12:18:41;4.57;;;1.87;;
54699;SDS011;40599;53.132;6.090;2022-09-27T12:21:09;4.83;;;2.10;;
54699;SDS011;40599;53.132;6.090;2022-09-27T12:23:44;3.17;;;1.73;;
54699;SDS011;40599;53.132;6.090;2022-09-27T12:31:15;4.37;;;1.80;;
54699;SDS011;40599;53.132;6.090;2022-09-27T12:36:40;5.63;;;1.93;;
54699;SDS011;40599;53.132;6.090;2022-09-27T12:39:22;2.37;;;2.00;;
54699;SDS011;40599;53.132;6.090;2022-09-27T12:41:58;6.20;;;1.80;;
54699;SDS011;40599;53.132;6.090;2022-09-27T12:44:32;2.75;;;1.70;;
54699;SDS011;40599;53.132;6.090;2022-09-27T12:50:00;4.43;;;1.90;;
54699;SDS011;40599;53.132;6.090;2022-09-27T12:52:51;3.70;;;1.77;;
54699;SDS011;40599;53.132;6.090;2022-09-27T13:12:12;6.97;;;3.53;;
54699;SDS011;40599;53.132;6.090;2022-09-27T13:31:03;4.38;;;2.50;;
54699;SDS011;40599;53.132;6.090;2022-09-27T13:49:45;9.20;;;3.38;;
54699;SDS011;40599;53.132;6.090;2022-09-27T13:54:55;8.77;;;3.70;;
54699;SDS011;40599;53.132;6.090;2022-09-27T14:02:52;4.90;;;2.25;;
54699;SDS011;40599;53.132;6.090;2022-09-27T14:05:41;3.13;;;2.22;;
54699;SDS011;40599;53.132;6.090;2022-09-27T14:08:27;3.85;;;2.40;;
54699;SDS011;40599;53.132;6.090;2022-09-27T14:10:59;5.05;;;2.97;;
54699;SDS011;40599;53.132;6.090;2022-09-27T14:13:27;4.43;;;2.30;;
54699;SDS011;40599;53.132;6.090;2022-09-27T14:15:56;3.17;;;2.20;;
54699;SDS011;40599;53.132;6.090;2022-09-27T14:18:26;3.72;;;2.17;;
54699;SDS011;40599;53.132;6.090;2022-09-27T14:20:54;3.95;;;2.13;;
54699;SDS011;40599;53.132;6.090;2022-09-27T14:23:34;4.00;;;2.30;;
54699;SDS011;40599;53.132;6.090;2022-09-27T14:26:00;3.83;;;1.85;;
54699;SDS011;40599;53.132;6.090;2022-09-27T14:28:27;4.70;;;2.30;;
54699;SDS011;40599;53.132;6.090;2022-09-27T14:31:04;3.45;;;2.13;;
54699;SDS011;40599;53.132;6.090;2022-09-27T14:33:31;2.70;;;1.90;;
54699;SDS011;40599;53.132;6.090;2022-09-27T14:35:58;4.85;;;2.55;;
54699;SDS011;40599;53.132;6.090;2022-09-27T14:38:43;4.13;;;2.40;;
54699;SDS011;40599;53.132;6.090;2022-09-27T14:41:12;4.75;;;3.00;;
54699;SDS011;40599;53.132;6.090;2022-09-27T14:43:43;3.87;;;2.00;;
54699;SDS011;40599;53.132;6.090;2022-09-27T14:46:27;2.65;;;1.80;;
54699;SDS011;40599;53.132;6.090;2022-09-27T14:48:55;2.63;;;2.00;;
54699;SDS011;40599;53.132;6.090;2022-09-27T14:51:27;2.00;;;1.70;;
54699;SDS011;40599;53.132;6.090;2022-09-27T14:53:56;3.67;;;1.77;;
54699;SDS011;40599;53.132;6.090;2022-09-27T14:56:29;3.97;;;1.90;;
54699;SDS011;40599;53.132;6.090;2022-09-27T14:59:14;6.07;;;1.88;;
54699;SDS011;40599;53.132;6.090;2022-09-27T15:01:49;2.33;;;1.85;;
54699;SDS011;40599;53.132;6.090;2022-09-27T15:04:16;4.30;;;1.80;;
54699;SDS011;40599;53.132;6.090;2022-09-27T15:06:44;4.47;;;2.10;;
54699;SDS011;40599;53.132;6.090;2022-09-27T15:11:39;4.20;;;1.90;;
54699;SDS011;40599;53.132;6.090;2022-09-27T15:14:06;4.40;;;2.00;;
54699;SDS011;40599;53.132;6.090;2022-09-27T15:16:40;5.78;;;2.42;;
54699;SDS011;40599;53.132;6.090;2022-09-27T15:21:41;3.10;;;1.90;;
54699;SDS011;40599;53.132;6.090;2022-09-27T15:24:34;8.75;;;2.00;;
54699;SDS011;40599;53.132;6.090;2022-09-27T15:27:00;6.28;;;2.28;;
54699;SDS011;40599;53.132;6.090;2022-09-27T15:29:26;5.05;;;1.75;;
54699;SDS011;40599;53.132;6.090;2022-09-27T15:34:26;4.43;;;1.92;;
54699;SDS011;40599;53.132;6.090;2022-09-27T15:36:55;6.13;;;2.08;;
54699;SDS011;40599;53.132;6.090;2022-09-27T15:39:34;5.38;;;2.15;;
54699;SDS011;40599;53.132;6.090;2022-09-27T15:42:11;6.10;;;3.00;;
54699;SDS011;40599;53.132;6.090;2022-09-27T15:52:49;3.70;;;2.30;;
54699;SDS011;40599;53.132;6.090;2022-09-27T15:55:17;5.07;;;2.53;;
54699;SDS011;40599;53.132;6.090;2022-09-27T15:57:48;4.57;;;2.28;;
54699;SDS011;40599;53.132;6.090;2022-09-27T16:00:18;6.78;;;2.13;;
54699;SDS011;40599;53.132;6.090;2022-09-27T16:02:44;2.95;;;1.73;;
54699;SDS011;40599;53.132;6.090;2022-09-27T16:05:10;4.57;;;2.00;;
54699;SDS011;40599;53.132;6.090;2022-09-27T16:07:37;3.33;;;2.03;;
54699;SDS011;40599;53.132;6.090;2022-09-27T16:10:12;2.83;;;2.00;;
54699;SDS011;40599;53.132;6.090;2022-09-27T16:12:40;2.83;;;2.00;;
54699;SDS011;40599;53.132;6.090;2022-09-27T16:15:09;2.88;;;2.20;;
54699;SDS011;40599;53.132;6.090;2022-09-27T16:17:35;4.30;;;2.25;;
54699;SDS011;40599;53.132;6.090;2022-09-27T16:20:03;2.63;;;2.13;;
54699;SDS011;40599;53.132;6.090;2022-09-27T16:24:55;4.53;;;2.50;;
54699;SDS011;40599;53.132;6.090;2022-09-27T16:27:22;3.20;;;2.13;;
54699;SDS011;40599;53.132;6.090;2022-09-27T16:29:48;2.47;;;2.15;;
54699;SDS011;40599;53.132;6.090;2022-09-27T16:32:14;4.03;;;2.70;;
54699;SDS011;40599;53.132;6.090;2022-09-27T16:34:40;3.97;;;2.60;;
54699;SDS011;40599;53.132;6.090;2022-09-27T16:37:06;4.20;;;2.40;;
54699;SDS011;40599;53.132;6.090;2022-09-27T16:39:33;3.72;;;2.40;;
54699;SDS011;40599;53.132;6.090;2022-09-27T16:41:59;4.77;;;2.60;;
54699;SDS011;40599;53.132;6.090;2022-09-27T16:44:30;4.32;;;2.35;;
54699;SDS011;40599;53.132;6.090;2022-09-27T16:46:59;7.18;;;2.83;;
54699;SDS011;40599;53.132;6.090;2022-09-27T16:49:25;3.58;;;2.22;;
54699;SDS011;40599;53.132;6.090;2022-09-27T16:52:09;2.60;;;2.40;;
54699;SDS011;40599;53.132;6.090;2022-09-27T16:54:35;4.67;;;2.40;;
54699;SDS011;40599;53.132;6.090;2022-09-27T16:57:01;2.70;;;2.40;;
54699;SDS011;40599;53.132;6.090;2022-09-27T16:59:26;4.37;;;2.57;;
54699;SDS011;40599;53.132;6.090;2022-09-27T17:01:52;5.67;;;2.70;;
54699;SDS011;40599;53.132;6.090;2022-09-27T17:04:22;5.70;;;2.60;;
54699;SDS011;40599;53.132;6.090;2022-09-27T17:06:49;6.00;;;2.70;;
54699;SDS011;40599;53.132;6.090;2022-09-27T17:09:15;6.28;;;2.55;;
54699;SDS011;40599;53.132;6.090;2022-09-27T17:11:41;4.97;;;2.70;;
54699;SDS011;40599;53.132;6.090;2022-09-27T17:14:09;3.37;;;2.60;;
54699;SDS011;40599;53.132;6.090;2022-09-27T17:16:41;10.25;;;2.70;;
54699;SDS011;40599;53.132;6.090;2022-09-27T17:19:08;5.35;;;2.50;;
54699;SDS011;40599;53.132;6.090;2022-09-27T17:21:37;5.22;;;2.70;;
54699;SDS011;40599;53.132;6.090;2022-09-27T17:24:03;9.00;;;2.90;;
54699;SDS011;40599;53.132;6.090;2022-09-27T17:26:30;5.35;;;2.65;;
54699;SDS011;40599;53.132;6.090;2022-09-27T17:28:56;7.33;;;2.90;;
54699;SDS011;40599;53.132;6.090;2022-09-27T17:31:25;9.35;;;2.65;;
54699;SDS011;40599;53.132;6.090;2022-09-27T17:33:52;11.35;;;3.38;;
54699;SDS011;40599;53.132;6.090;2022-09-27T17:36:20;5.28;;;2.38;;
54699;SDS011;40599;53.132;6.090;2022-09-27T17:38:47;11.75;;;2.95;;
54699;SDS011;40599;53.132;6.090;2022-09-27T17:41:14;8.80;;;2.60;;
54699;SDS011;40599;53.132;6.090;2022-09-27T17:43:42;4.03;;;2.25;;
54699;SDS011;40599;53.132;6.090;2022-09-27T17:46:18;5.45;;;2.58;;
54699;SDS011;40599;53.132;6.090;2022-09-27T17:48:46;5.13;;;2.45;;
54699;SDS011;40599;53.132;6.090;2022-09-27T17:51:32;6.20;;;2.70;;
54699;SDS011;40599;53.132;6.090;2022-09-27T17:53:59;6.22;;;2.88;;
54699;SDS011;40599;53.132;6.090;2022-09-27T17:56:25;4.00;;;2.70;;
54699;SDS011;40599;53.132;6.090;2022-09-27T17:58:52;4.38;;;3.08;;
54699;SDS011;40599;53.132;6.090;2022-09-27T18:01:20;5.97;;;2.90;;
54699;SDS011;40599;53.132;6.090;2022-09-27T18:03:47;5.60;;;2.70;;
54699;SDS011;40599;53.132;6.090;2022-09-27T18:06:16;5.60;;;2.70;;
54699;SDS011;40599;53.132;6.090;2022-09-27T18:08:41;5.13;;;2.60;;
54699;SDS011;40599;53.132;6.090;2022-09-27T18:11:11;6.10;;;2.40;;
54699;SDS011;40599;53.132;6.090;2022-09-27T18:13:39;4.72;;;2.70;;
54699;SDS011;40599;53.132;6.090;2022-09-27T18:18:36;3.38;;;2.40;;
54699;SDS011;40599;53.132;6.090;2022-09-27T18:21:07;5.43;;;2.70;;
54699;SDS011;40599;53.132;6.090;2022-09-27T18:23:43;5.55;;;2.60;;
54699;SDS011;40599;53.132;6.090;2022-09-27T18:26:09;6.80;;;2.93;;
54699;SDS011;40599;53.132;6.090;2022-09-27T18:28:36;5.55;;;2.40;;
54699;SDS011;40599;53.132;6.090;2022-09-27T18:31:05;5.30;;;2.40;;
54699;SDS011;40599;53.132;6.090;2022-09-27T18:33:35;4.75;;;2.60;;
54699;SDS011;40599;53.132;6.090;2022-09-27T18:36:02;3.90;;;2.30;;
54699;SDS011;40599;53.132;6.090;2022-09-27T18:38:32;2.75;;;2.40;;
54699;SDS011;40599;53.132;6.090;2022-09-27T18:43:56;5.72;;;2.50;;
54699;SDS011;40599;53.132;6.090;2022-09-27T18:46:30;2.50;;;2.30;;
54699;SDS011;40599;53.132;6.090;2022-09-27T18:48:59;4.72;;;2.83;;
54699;SDS011;40599;53.132;6.090;2022-09-27T18:51:26;5.20;;;2.70;;
54699;SDS011;40599;53.132;6.090;2022-09-27T18:54:00;3.38;;;2.60;;
54699;SDS011;40599;53.132;6.090;2022-09-27T18:56:28;8.13;;;3.30;;
54699;SDS011;40599;53.132;6.090;2022-09-27T18:58:55;5.38;;;2.95;;
54699;SDS011;40599;53.132;6.090;2022-09-27T19:01:22;6.63;;;3.30;;